Time;durP1;ratioP1;P1;durP2;ratioP2;P2;SDS_P1;SDS_P2;PMS_P1;PMS_P2;Temp;Humidity;BMP_temperature;BMP_pressure;BME280_temperature;BME280_humidity;BME280_pressure;Samples;Min_cycle;Max_cycle;Signal;HPM_P1;HPM_P2
2023/09/06 00:01:30;;;;;;;2.60;1.00;;;20.10;99.90;;;;;;5027128;28;20481;-72
2023/09/06 00:03:56;;;;;;;3.65;0.90;;;20.10;99.90;;;;;;5029146;28;20029;-72
2023/09/06 00:06:22;;;;;;;2.67;1.10;;;20.10;99.90;;;;;;5029099;28;20445;-73
2023/09/06 00:08:48;;;;;;;2.83;1.50;;;20.00;99.90;;;;;;5029731;28;20033;-73
2023/09/06 00:11:15;;;;;;;2.13;1.00;;;20.00;99.90;;;;;;5025786;28;20072;-73
2023/09/06 00:13:40;;;;;;;1.98;1.10;;;20.00;99.90;;;;;;5025254;28;20090;-73
2023/09/06 00:16:07;;;;;;;2.78;1.15;;;19.90;99.90;;;;;;5029544;28;20057;-73
2023/09/06 00:18:33;;;;;;;1.83;0.95;;;19.90;99.90;;;;;;5029370;28;20037;-73
2023/09/06 00:20:58;;;;;;;3.15;1.30;;;19.80;99.90;;;;;;5031498;28;20059;-73
2023/09/06 00:23:25;;;;;;;4.70;1.40;;;19.80;99.90;;;;;;5012058;28;20033;-72
2023/09/06 00:25:52;;;;;;;3.05;1.45;;;19.80;99.90;;;;;;5029021;28;20053;-72
2023/09/06 00:28:19;;;;;;;4.03;1.10;;;19.70;99.90;;;;;;5028715;28;20116;-72
2023/09/06 00:30:45;;;;;;;3.05;1.17;;;19.70;99.90;;;;;;5028612;28;20043;-73
2023/09/06 00:33:11;;;;;;;2.42;1.00;;;19.60;99.90;;;;;;5027216;28;20147;-73
2023/09/06 00:35:38;;;;;;;3.97;1.50;;;19.50;99.90;;;;;;5021380;28;20482;-73
2023/09/06 00:38:05;;;;;;;2.35;1.42;;;19.50;99.90;;;;;;5029576;28;20040;-73
2023/09/06 00:40:31;;;;;;;3.17;1.45;;;19.50;99.90;;;;;;5030562;28;20033;-73
2023/09/06 00:42:59;;;;;;;2.78;1.35;;;19.40;99.90;;;;;;5030360;28;20489;-72
2023/09/06 00:45:44;;;;;;;3.60;1.70;;;19.40;99.90;;;;;;5023472;28;20038;-72
2023/09/06 00:48:14;;;;;;;4.68;1.67;;;19.30;99.90;;;;;;5028436;28;20053;-72
2023/09/06 00:50:42;;;;;;;3.08;1.52;;;19.30;99.90;;;;;;5029402;28;20057;-73
2023/09/06 00:53:08;;;;;;;4.97;1.50;;;19.20;99.90;;;;;;5029781;28;20021;-72
2023/09/06 00:55:37;;;;;;;4.32;1.60;;;19.20;99.90;;;;;;5025979;28;20029;-72
2023/09/06 00:58:03;;;;;;;2.83;1.30;;;19.20;99.90;;;;;;5026650;28;20033;-73
2023/09/06 01:00:30;;;;;;;3.28;1.77;;;19.10;99.90;;;;;;5022012;28;20034;-73
2023/09/06 01:02:56;;;;;;;3.53;1.42;;;19.10;99.90;;;;;;5026172;28;20021;-73
2023/09/06 01:05:23;;;;;;;2.20;1.33;;;19.10;99.90;;;;;;5024014;28;20097;-72
2023/09/06 01:07:56;;;;;;;3.00;1.60;;;19.10;99.90;;;;;;5026873;28;20044;-72
2023/09/06 01:10:21;;;;;;;3.33;1.50;;;19.00;99.90;;;;;;5027963;28;20044;-72
2023/09/06 01:12:48;;;;;;;4.18;1.30;;;19.00;99.90;;;;;;5022554;28;20030;-72
2023/09/06 01:15:13;;;;;;;4.45;1.67;;;19.00;99.90;;;;;;5028248;28;20447;-72
2023/09/06 01:17:42;;;;;;;2.88;1.20;;;18.90;99.90;;;;;;5030343;28;20026;-72
2023/09/06 01:20:18;;;;;;;2.58;1.55;;;18.90;99.90;;;;;;5027571;28;20049;-73
2023/09/06 01:23:25;;;;;;;3.83;1.73;;;18.90;99.90;;;;;;5012387;28;20076;-72
2023/09/06 01:25:51;;;;;;;3.53;1.50;;;18.80;99.90;;;;;;5022980;28;20359;-73
2023/09/06 01:28:17;;;;;;;2.60;1.38;;;18.80;99.90;;;;;;5023323;28;20037;-73
2023/09/06 01:30:42;;;;;;;5.78;2.00;;;18.80;99.90;;;;;;5025208;28;20028;-73
2023/09/06 01:33:08;;;;;;;2.53;1.38;;;18.70;99.90;;;;;;5020555;28;20042;-72
2023/09/06 01:35:33;;;;;;;5.13;1.75;;;18.70;99.90;;;;;;5024810;28;20029;-73
2023/09/06 01:37:59;;;;;;;2.85;2.00;;;18.70;99.90;;;;;;5026477;28;20026;-73
2023/09/06 01:40:26;;;;;;;2.60;1.70;;;18.70;99.90;;;;;;5029951;28;20034;-73
2023/09/06 01:42:52;;;;;;;4.75;2.08;;;18.70;99.90;;;;;;5026936;28;20037;-72
2023/09/06 01:45:18;;;;;;;4.32;2.20;;;18.70;99.90;;;;;;5025427;28;20033;-73
2023/09/06 01:47:46;;;;;;;3.38;1.65;;;18.60;99.90;;;;;;5030602;28;20602;-72
2023/09/06 01:50:13;;;;;;;3.20;1.85;;;18.60;99.90;;;;;;5029263;28;20029;-72
2023/09/06 01:52:40;;;;;;;4.82;2.17;;;18.60;99.90;;;;;;5028963;28;20268;-73
2023/09/06 01:55:08;;;;;;;2.95;1.67;;;18.60;99.90;;;;;;5027124;28;20018;-73
2023/09/06 01:57:33;;;;;;;3.25;1.65;;;18.60;99.90;;;;;;5030165;28;20112;-72
2023/09/06 01:59:59;;;;;;;2.83;1.95;;;18.50;99.90;;;;;;5020597;28;20080;-72
2023/09/06 02:02:24;;;;;;;3.10;1.83;;;18.50;99.90;;;;;;5019822;28;20089;-73
2023/09/06 02:04:50;;;;;;;3.75;1.85;;;18.50;99.90;;;;;;5018008;28;20030;-72
2023/09/06 02:07:15;;;;;;;3.38;2.10;;;18.50;99.90;;;;;;5011914;28;20028;-73
2023/09/06 02:09:41;;;;;;;3.38;2.05;;;18.50;99.90;;;;;;5028554;28;20120;-72
2023/09/06 02:12:07;;;;;;;8.20;2.22;;;18.40;99.90;;;;;;5026795;28;20037;-73
2023/09/06 02:14:34;;;;;;;3.42;2.22;;;18.50;99.90;;;;;;5027997;28;20053;-74
2023/09/06 02:17:00;;;;;;;5.63;2.00;;;18.40;99.90;;;;;;5030367;28;20381;-72
2023/09/06 02:19:25;;;;;;;4.65;2.85;;;18.40;99.90;;;;;;5032880;28;20397;-72
2023/09/06 02:21:52;;;;;;;4.68;2.25;;;18.40;99.90;;;;;;5029641;28;20022;-72
2023/09/06 02:24:18;;;;;;;3.60;2.03;;;18.40;99.90;;;;;;5029847;28;20160;-73
2023/09/06 02:26:43;;;;;;;3.65;2.85;;;18.30;99.90;;;;;;5031255;28;20101;-72
2023/09/06 02:29:10;;;;;;;4.50;2.53;;;18.30;99.90;;;;;;5020535;28;20045;-72
2023/09/06 02:31:37;;;;;;;6.55;2.75;;;18.30;99.90;;;;;;5030449;28;20031;-72
2023/09/06 02:34:04;;;;;;;5.45;2.78;;;18.30;99.90;;;;;;5025469;28;20376;-73
2023/09/06 02:36:30;;;;;;;5.30;2.63;;;18.30;99.90;;;;;;5031484;28;20018;-73
2023/09/06 02:38:57;;;;;;;5.53;3.05;;;18.20;99.90;;;;;;5024715;28;20052;-72
2023/09/06 02:41:23;;;;;;;6.70;3.30;;;18.10;99.90;;;;;;5031727;28;20017;-72
2023/09/06 02:43:48;;;;;;;4.72;3.10;;;18.10;99.90;;;;;;5028162;28;20039;-73
2023/09/06 02:46:15;;;;;;;8.00;3.90;;;18.10;99.90;;;;;;5031265;28;20033;-72
2023/09/06 02:48:46;;;;;;;5.55;3.95;;;18.10;99.90;;;;;;5030978;28;20037;-72
2023/09/06 02:51:15;;;;;;;6.22;3.50;;;18.00;99.90;;;;;;5031132;28;20037;-72
2023/09/06 02:53:45;;;;;;;6.63;4.30;;;18.00;99.90;;;;;;5031109;28;20125;-72
2023/09/06 02:56:13;;;;;;;4.40;3.58;;;17.90;99.90;;;;;;5031128;28;20038;-72
2023/09/06 02:58:41;;;;;;;5.35;3.97;;;17.90;99.90;;;;;;5025572;28;20033;-72
2023/09/06 03:01:07;;;;;;;6.20;3.28;;;17.80;99.90;;;;;;5032162;28;20032;-73
2023/09/06 03:03:35;;;;;;;7.82;4.05;;;17.70;99.90;;;;;;5022107;28;20037;-72
2023/09/06 03:06:04;;;;;;;6.40;4.32;;;17.70;99.90;;;;;;5007047;28;20025;-72
2023/09/06 03:08:29;;;;;;;5.97;4.30;;;17.70;99.90;;;;;;5032109;28;20836;-73
2023/09/06 03:10:55;;;;;;;8.68;3.83;;;17.60;99.90;;;;;;5030110;28;20070;-73
2023/09/06 03:13:21;;;;;;;4.97;3.42;;;17.60;99.90;;;;;;5029234;28;20037;-73
2023/09/06 03:15:51;;;;;;;5.57;3.13;;;17.60;99.90;;;;;;5027110;28;20168;-72
2023/09/06 03:18:17;;;;;;;5.07;3.67;;;17.60;99.90;;;;;;5022484;28;20021;-72
2023/09/06 03:20:42;;;;;;;7.55;3.42;;;17.50;99.90;;;;;;5026903;28;20021;-73
2023/09/06 03:23:17;;;;;;;5.35;2.88;;;17.50;99.90;;;;;;5027216;28;20032;-73
2023/09/06 03:25:51;;;;;;;5.80;3.75;;;17.40;99.90;;;;;;5025789;28;20033;-72
2023/09/06 03:28:18;;;;;;;8.27;3.25;;;17.40;99.90;;;;;;5030466;28;20036;-72
2023/09/06 03:30:44;;;;;;;6.53;3.33;;;17.40;99.90;;;;;;5032121;28;20030;-72
2023/09/06 03:33:10;;;;;;;7.25;3.45;;;17.30;99.90;;;;;;5032434;28;20033;-73
2023/09/06 03:35:36;;;;;;;6.63;3.67;;;17.30;99.90;;;;;;5025561;28;20025;-72
2023/09/06 03:38:03;;;;;;;6.13;3.47;;;17.20;99.90;;;;;;5029228;28;20387;-73
2023/09/06 03:40:35;;;;;;;6.35;4.45;;;17.20;99.90;;;;;;5030047;28;20029;-72
2023/09/06 03:43:04;;;;;;;6.63;3.92;;;17.20;99.90;;;;;;5036965;28;20037;-72
2023/09/06 03:45:34;;;;;;;5.43;4.25;;;17.10;99.90;;;;;;5035135;28;20029;-73
2023/09/06 03:48:00;;;;;;;7.63;4.38;;;17.10;99.90;;;;;;5023885;28;20063;-72
2023/09/06 03:50:26;;;;;;;4.95;3.55;;;17.10;99.90;;;;;;5031742;28;20071;-72
2023/09/06 03:52:51;;;;;;;4.85;3.95;;;17.10;99.90;;;;;;5025951;28;20025;-72
2023/09/06 03:55:17;;;;;;;6.10;4.38;;;17.10;99.90;;;;;;5030074;28;20026;-72
2023/09/06 03:57:44;;;;;;;5.60;4.32;;;17.00;99.90;;;;;;5025821;28;20501;-73
2023/09/06 04:00:29;;;;;;;4.78;3.72;;;17.00;99.90;;;;;;5025018;28;20041;-72
2023/09/06 04:02:55;;;;;;;8.65;4.47;;;17.00;99.90;;;;;;5029961;28;20688;-72
2023/09/06 04:05:22;;;;;;;11.40;5.07;;;16.90;99.90;;;;;;5030860;28;20108;-73
2023/09/06 04:07:53;;;;;;;7.18;4.30;;;16.90;99.90;;;;;;5030364;28;20036;-72
2023/09/06 04:10:21;;;;;;;5.30;3.75;;;16.90;99.90;;;;;;5023761;28;20117;-71
2023/09/06 04:12:48;;;;;;;7.25;4.18;;;16.90;99.90;;;;;;5028190;28;20026;-72
2023/09/06 04:15:14;;;;;;;7.53;3.55;;;16.80;99.90;;;;;;5010425;28;20378;-72
2023/09/06 04:17:40;;;;;;;4.60;3.97;;;16.80;99.90;;;;;;5029479;28;20040;-72
2023/09/06 04:20:18;;;;;;;5.47;3.80;;;16.70;99.90;;;;;;5028895;28;20490;-71
2023/09/06 04:22:45;;;;;;;6.13;4.45;;;16.70;99.90;;;;;;5027914;28;20033;-71
2023/09/06 04:25:11;;;;;;;11.07;4.93;;;16.70;99.90;;;;;;5019883;28;20041;-71
2023/09/06 04:27:38;;;;;;;6.03;4.18;;;16.70;99.90;;;;;;5019200;28;20030;-71
2023/09/06 04:30:03;;;;;;;7.80;5.10;;;16.60;99.90;;;;;;5023697;28;20500;-71
2023/09/06 04:32:29;;;;;;;7.47;4.07;;;16.60;99.90;;;;;;5018746;28;20037;-72
2023/09/06 04:34:54;;;;;;;9.85;4.80;;;16.60;99.90;;;;;;5019239;28;20470;-72
2023/09/06 04:37:20;;;;;;;9.55;4.55;;;16.60;99.90;;;;;;5025149;28;20432;-72
2023/09/06 04:39:45;;;;;;;8.15;4.28;;;16.50;99.90;;;;;;5016313;28;20478;-72
2023/09/06 04:42:11;;;;;;;5.75;4.30;;;16.50;99.90;;;;;;5029640;28;20428;-71
2023/09/06 04:44:37;;;;;;;6.25;3.75;;;16.50;99.90;;;;;;5029719;28;20025;-72
2023/09/06 04:47:02;;;;;;;7.35;3.47;;;16.40;99.90;;;;;;5031355;28;20057;-71
2023/09/06 04:49:28;;;;;;;6.53;3.95;;;16.50;99.90;;;;;;5027959;28;20585;-72
2023/09/06 04:51:53;;;;;;;6.35;3.78;;;16.40;99.90;;;;;;5030182;28;20116;-71
2023/09/06 04:54:19;;;;;;;6.38;4.43;;;16.40;99.90;;;;;;5020513;28;20041;-71
2023/09/06 04:56:45;;;;;;;5.93;4.38;;;16.40;99.90;;;;;;5021964;28;20527;-72
2023/09/06 04:59:11;;;;;;;7.82;4.68;;;16.40;99.90;;;;;;5023397;28;20075;-71
2023/09/06 05:01:37;;;;;;;7.15;4.60;;;16.50;99.90;;;;;;5027328;28;20029;-71
2023/09/06 05:04:03;;;;;;;8.45;5.13;;;16.50;99.90;;;;;;5029495;28;20493;-71
2023/09/06 05:06:28;;;;;;;5.30;4.10;;;16.50;99.90;;;;;;5015454;28;20045;-71
2023/09/06 05:08:54;;;;;;;7.85;4.25;;;16.50;99.90;;;;;;4997629;28;20486;-71
2023/09/06 05:11:19;;;;;;;6.97;4.30;;;16.40;99.90;;;;;;5020584;28;20152;-71
2023/09/06 05:13:45;;;;;;;6.60;4.70;;;16.50;99.90;;;;;;5026017;28;20053;-71
2023/09/06 05:16:11;;;;;;;6.75;4.50;;;16.50;99.90;;;;;;5027968;28;20065;-71
2023/09/06 05:18:36;;;;;;;6.63;4.50;;;16.50;99.90;;;;;;5010131;28;20478;-72
2023/09/06 05:21:04;;;;;;;6.68;4.00;;;16.40;99.90;;;;;;5018845;28;20038;-72
2023/09/06 05:23:30;;;;;;;8.13;4.72;;;16.40;99.90;;;;;;5005542;28;20366;-72
2023/09/06 05:25:56;;;;;;;10.55;6.10;;;16.40;99.90;;;;;;5025659;28;20033;-71
2023/09/06 05:28:21;;;;;;;6.15;4.75;;;16.40;99.90;;;;;;5021981;28;20041;-70
2023/09/06 05:30:47;;;;;;;6.75;4.95;;;16.50;99.90;;;;;;5014628;28;20041;-72
2023/09/06 05:33:14;;;;;;;8.93;4.43;;;16.50;99.90;;;;;;5022951;28;20026;-72
2023/09/06 05:35:41;;;;;;;7.72;5.15;;;16.50;99.90;;;;;;5020308;28;20119;-72
2023/09/06 05:38:09;;;;;;;10.25;5.43;;;16.50;99.90;;;;;;5022817;28;20021;-72
2023/09/06 05:40:35;;;;;;;9.82;6.20;;;16.50;99.90;;;;;;5024832;28;20083;-71
2023/09/06 05:43:01;;;;;;;9.48;5.75;;;16.60;99.90;;;;;;5025336;28;20474;-72
2023/09/06 05:45:27;;;;;;;5.28;4.78;;;16.60;99.90;;;;;;5021593;28;20108;-72
2023/09/06 05:47:53;;;;;;;11.40;5.53;;;16.60;99.90;;;;;;5012016;28;20029;-72
2023/09/06 05:50:19;;;;;;;8.65;5.20;;;16.70;99.90;;;;;;5025113;28;20566;-72
2023/09/06 05:52:46;;;;;;;8.55;6.25;;;16.70;99.90;;;;;;5024348;28;20025;-72
2023/09/06 05:55:11;;;;;;;9.38;6.00;;;16.70;99.90;;;;;;5017859;28;20029;-72
2023/09/06 05:57:38;;;;;;;8.80;5.70;;;16.80;99.90;;;;;;5024945;28;20033;-72
2023/09/06 06:00:12;;;;;;;7.60;5.22;;;16.90;99.90;;;;;;5021653;28;20033;-71
2023/09/06 06:02:38;;;;;;;6.13;4.95;;;16.90;99.90;;;;;;5008134;28;20018;-72
2023/09/06 06:05:05;;;;;;;13.38;6.35;;;17.00;99.90;;;;;;5023478;28;20141;-73
2023/09/06 06:07:30;;;;;;;8.90;5.57;;;17.10;99.90;;;;;;5028591;28;20032;-72
2023/09/06 06:09:56;;;;;;;8.75;5.68;;;17.10;99.90;;;;;;5031516;28;20033;-71
2023/09/06 06:12:22;;;;;;;7.15;5.35;;;17.20;99.90;;;;;;5021068;28;20421;-72
2023/09/06 06:14:56;;;;;;;8.70;5.55;;;17.30;99.90;;;;;;5017888;28;20494;-72
2023/09/06 06:17:22;;;;;;;6.80;5.10;;;17.40;99.90;;;;;;5018421;28;20025;-72
2023/09/06 06:19:49;;;;;;;8.07;4.97;;;17.50;99.90;;;;;;5020292;28;20044;-72
2023/09/06 06:22:14;;;;;;;8.30;5.30;;;17.50;99.90;;;;;;5013731;28;20514;-71
2023/09/06 06:24:45;;;;;;;8.43;6.07;;;17.70;99.90;;;;;;5017578;28;20033;-71
2023/09/06 06:27:11;;;;;;;11.43;6.18;;;17.80;99.90;;;;;;5015026;28;20026;-72
2023/09/06 06:29:37;;;;;;;10.65;6.07;;;17.90;99.90;;;;;;5015319;28;20030;-72
2023/09/06 06:32:06;;;;;;;6.72;5.05;;;17.90;99.90;;;;;;5017261;28;20032;-72
2023/09/06 06:34:32;;;;;;;7.47;5.20;;;18.10;99.90;;;;;;5016338;28;20382;-72
2023/09/06 06:36:58;;;;;;;5.88;4.88;;;18.20;99.90;;;;;;5014388;28;20037;-71
2023/09/06 06:39:24;;;;;;;9.75;5.32;;;18.30;99.90;;;;;;5015098;28;20493;-71
2023/09/06 06:41:50;;;;;;;6.25;5.28;;;18.40;99.90;;;;;;5023297;28;20026;-72
2023/09/06 06:44:16;;;;;;;8.27;4.57;;;18.50;99.90;;;;;;5024326;28;20029;-72
2023/09/06 06:46:42;;;;;;;12.43;4.55;;;18.60;99.90;;;;;;5021704;28;20401;-72
2023/09/06 06:49:08;;;;;;;6.32;4.05;;;18.80;99.90;;;;;;5023647;28;20037;-72
2023/09/06 06:51:40;;;;;;;6.43;4.28;;;18.80;99.90;;;;;;5016511;28;20026;-74
2023/09/06 06:54:10;;;;;;;7.70;4.38;;;19.00;99.90;;;;;;5019354;28;20108;-72
2023/09/06 06:56:37;;;;;;;7.78;4.30;;;19.10;99.90;;;;;;5024149;28;20119;-71
2023/09/06 06:59:03;;;;;;;8.32;4.28;;;19.20;99.90;;;;;;5025509;28;20025;-71
2023/09/06 07:01:30;;;;;;;6.40;4.18;;;19.30;99.90;;;;;;5025633;28;20503;-72
2023/09/06 07:03:57;;;;;;;6.70;3.88;;;19.40;99.90;;;;;;5028073;28;20485;-72
2023/09/06 07:06:24;;;;;;;8.10;3.63;;;19.50;99.90;;;;;;5009055;28;20021;-71
2023/09/06 07:08:50;;;;;;;7.32;3.80;;;19.60;99.90;;;;;;5009425;28;20034;-72
2023/09/06 07:11:16;;;;;;;4.55;3.78;;;19.80;99.90;;;;;;5022903;28;20026;-71
2023/09/06 07:13:42;;;;;;;5.68;3.30;;;19.90;99.90;;;;;;5021014;28;20049;-70
2023/09/06 07:16:09;;;;;;;6.15;3.22;;;20.00;99.90;;;;;;5017019;28;20496;-71
2023/09/06 07:18:35;;;;;;;6.78;3.65;;;20.10;99.90;;;;;;5021566;28;20033;-72
2023/09/06 07:21:00;;;;;;;5.60;3.90;;;20.20;99.90;;;;;;5026779;28;20037;-73
2023/09/06 07:23:27;;;;;;;8.07;3.40;;;20.30;99.90;;;;;;5023083;28;20438;-72
2023/09/06 07:25:52;;;;;;;3.90;3.08;;;20.40;99.90;;;;;;5026620;28;20029;-71
2023/09/06 07:28:22;;;;;;;5.95;3.17;;;20.50;99.90;;;;;;5021426;28;20033;-71
2023/09/06 07:30:48;;;;;;;6.65;2.97;;;20.70;99.90;;;;;;5025241;28;20030;-72
2023/09/06 07:33:17;;;;;;;6.78;3.47;;;20.80;99.90;;;;;;5018263;28;20075;-72
2023/09/06 07:35:43;;;;;;;4.82;2.78;;;20.90;99.90;;;;;;5027430;28;20083;-73
2023/09/06 07:38:09;;;;;;;5.38;3.25;;;21.00;99.90;;;;;;5020731;28;20026;-72
2023/09/06 07:40:35;;;;;;;3.90;2.75;;;21.20;99.90;;;;;;5029321;28;20635;-73
2023/09/06 07:43:01;;;;;;;4.57;2.67;;;21.30;99.90;;;;;;5024438;28;20018;-71
2023/09/06 07:45:26;;;;;;;4.85;2.75;;;21.40;99.90;;;;;;5027812;28;20021;-72
2023/09/06 07:47:53;;;;;;;4.22;2.78;;;21.40;99.90;;;;;;5029975;28;20037;-72
2023/09/06 07:50:19;;;;;;;5.38;2.53;;;21.50;99.90;;;;;;5029982;28;20026;-72
2023/09/06 07:52:45;;;;;;;8.32;2.10;;;21.60;99.90;;;;;;5003960;28;20381;-72
2023/09/06 07:55:12;;;;;;;5.63;2.60;;;21.70;99.90;;;;;;5027252;28;20043;-72
2023/09/06 07:57:38;;;;;;;5.80;2.05;;;21.80;99.90;;;;;;5028538;28;20062;-72
2023/09/06 08:00:06;;;;;;;4.78;2.10;;;21.90;99.90;;;;;;5015528;28;20025;-73
2023/09/06 08:02:31;;;;;;;6.05;2.03;;;22.00;99.90;;;;;;4999611;28;20030;-71
2023/09/06 08:04:57;;;;;;;3.60;2.20;;;22.10;99.90;;;;;;5018631;28;20033;-71
2023/09/06 08:07:24;;;;;;;4.53;1.90;;;22.20;99.90;;;;;;4999003;28;20083;-71
2023/09/06 08:09:50;;;;;;;5.03;1.65;;;22.20;99.90;;;;;;5018817;28;20628;-72
2023/09/06 08:12:16;;;;;;;4.72;1.80;;;22.40;99.90;;;;;;5027547;28;20032;-71
2023/09/06 08:14:42;;;;;;;4.20;1.88;;;22.50;99.90;;;;;;5022736;28;20076;-72
2023/09/06 08:17:08;;;;;;;4.18;1.88;;;22.60;99.90;;;;;;5014234;28;20034;-72
2023/09/06 08:19:34;;;;;;;4.45;1.67;;;22.60;99.90;;;;;;5024905;28;20401;-72
2023/09/06 08:21:59;;;;;;;3.35;2.00;;;22.70;99.90;;;;;;5024602;28;20033;-71
2023/09/06 08:24:25;;;;;;;5.57;1.55;;;22.80;99.90;;;;;;5023517;28;20486;-72
2023/09/06 08:26:50;;;;;;;4.30;1.75;;;22.90;99.90;;;;;;5028222;28;20040;-73
2023/09/06 08:29:16;;;;;;;6.63;1.60;;;23.00;99.90;;;;;;5019505;28;20041;-72
2023/09/06 08:31:42;;;;;;;4.97;1.83;;;23.10;99.90;;;;;;5007346;28;20390;-73
2023/09/06 08:34:11;;;;;;;3.88;1.30;;;23.20;99.90;;;;;;5029758;28;20111;-72
2023/09/06 08:36:36;;;;;;;4.05;1.70;;;23.20;99.90;;;;;;5024817;28;20493;-72
2023/09/06 08:39:03;;;;;;;5.70;2.03;;;23.30;99.90;;;;;;5024059;28;20033;-72
2023/09/06 08:41:31;;;;;;;6.38;1.98;;;23.40;99.90;;;;;;5023058;28;20028;-72
2023/09/06 08:44:00;;;;;;;6.03;1.90;;;23.50;99.90;;;;;;5019971;28;20116;-72
2023/09/06 08:46:38;;;;;;;4.63;1.48;;;23.60;99.90;;;;;;5017644;28;20029;-71
2023/09/06 08:49:04;;;;;;;31.60;8.27;;;23.70;99.90;;;;;;5026108;28;20426;-72
2023/09/06 08:51:35;;;;;;;25.05;5.93;;;23.80;99.90;;;;;;5029843;28;20033;-71
2023/09/06 08:54:05;;;;;;;8.07;2.10;;;23.80;99.90;;;;;;5025149;28;20053;-73
2023/09/06 08:56:32;;;;;;;3.40;1.38;;;23.90;99.90;;;;;;5009396;28;20110;-71
2023/09/06 08:58:59;;;;;;;2.92;1.20;;;24.00;99.90;;;;;;5022675;28;20029;-72
2023/09/06 09:01:25;;;;;;;5.55;2.10;;;24.10;99.90;;;;;;5027437;28;20628;-72
2023/09/06 09:03:51;;;;;;;4.05;1.17;;;24.20;99.90;;;;;;5025957;28;20037;-73
2023/09/06 09:06:16;;;;;;;3.20;1.10;;;24.30;99.90;;;;;;5003541;28;20024;-72
2023/09/06 09:08:42;;;;;;;2.63;1.45;;;24.30;99.90;;;;;;5024176;28;20033;-72
2023/09/06 09:11:09;;;;;;;3.13;1.08;;;24.50;99.90;;;;;;5015772;28;20037;-72
2023/09/06 09:13:35;;;;;;;4.28;1.33;;;24.50;99.90;;;;;;5026155;28;20049;-72
2023/09/06 09:16:09;;;;;;;3.25;1.25;;;24.60;99.90;;;;;;5029083;28;20048;-72
2023/09/06 09:18:38;;;;;;;3.05;1.00;;;24.70;99.90;;;;;;5030983;28;20516;-71
2023/09/06 09:21:04;;;;;;;4.70;1.23;;;24.80;99.90;;;;;;5028276;28;20363;-74
2023/09/06 09:23:31;;;;;;;3.55;1.20;;;24.90;99.90;;;;;;5033107;28;20034;-72
2023/09/06 09:25:57;;;;;;;3.58;1.10;;;25.00;99.90;;;;;;5017108;28;20120;-72
2023/09/06 09:28:23;;;;;;;3.67;1.30;;;25.10;99.90;;;;;;5012857;28;20116;-72
2023/09/06 09:30:50;;;;;;;3.05;1.27;;;25.10;99.90;;;;;;5025661;28;20029;-72
2023/09/06 09:33:16;;;;;;;3.08;1.35;;;25.20;99.90;;;;;;5029448;28;20039;-73
2023/09/06 09:35:46;;;;;;;2.15;1.10;;;25.40;99.90;;;;;;5029306;28;20485;-72
2023/09/06 09:38:12;;;;;;;5.38;1.20;;;25.40;99.90;;;;;;5034369;28;20121;-73
2023/09/06 09:40:38;;;;;;;5.97;1.40;;;25.50;99.90;;;;;;5025576;28;20096;-73
2023/09/06 09:43:04;;;;;;;3.97;1.20;;;25.60;99.90;;;;;;5033975;28;20566;-73
2023/09/06 09:45:40;;;;;;;3.90;1.38;;;25.70;99.90;;;;;;5029587;28;20049;-73
2023/09/06 09:48:07;;;;;;;3.90;1.33;;;25.90;99.90;;;;;;5032581;28;20041;-73
2023/09/06 09:50:34;;;;;;;2.72;1.27;;;26.00;99.90;;;;;;5027253;28;20466;-73
2023/09/06 09:53:03;;;;;;;9.02;1.65;;;26.00;99.90;;;;;;5027305;28;22200;-72
2023/09/06 09:55:34;;;;;;;4.22;1.40;;;26.10;99.90;;;;;;5030748;28;20453;-73
2023/09/06 09:58:08;;;;;;;4.80;1.92;;;26.20;99.90;;;;;;5028360;28;20056;-73
2023/09/06 10:00:39;;;;;;;6.22;1.67;;;26.30;99.90;;;;;;5016374;28;20068;-72
2023/09/06 10:03:05;;;;;;;2.73;0.90;;;26.40;99.90;;;;;;5035041;28;20397;-74
2023/09/06 10:05:32;;;;;;;5.10;1.38;;;26.50;99.90;;;;;;5029703;28;20284;-72
2023/09/06 10:08:00;;;;;;;3.85;1.45;;;26.60;99.90;;;;;;5034178;28;20482;-73
2023/09/06 10:10:27;;;;;;;6.35;1.33;;;26.60;99.90;;;;;;5015552;28;20022;-73
2023/09/06 10:12:53;;;;;;;5.18;1.75;;;26.70;99.90;;;;;;5028829;28;20136;-72
2023/09/06 10:15:23;;;;;;;5.05;1.60;;;26.70;99.90;;;;;;5033109;28;20053;-72
2023/09/06 10:17:50;;;;;;;3.88;1.60;;;26.80;99.90;;;;;;5028733;28;20428;-72
2023/09/06 10:20:15;;;;;;;4.30;1.80;;;26.80;99.90;;;;;;5024582;28;20029;-73
2023/09/06 10:22:43;;;;;;;5.15;1.50;;;26.90;99.80;;;;;;5026545;28;20022;-72
2023/09/06 10:25:10;;;;;;;8.98;2.00;;;27.00;99.40;;;;;;5028766;28;20033;-72
2023/09/06 10:27:45;;;;;;;4.38;1.58;;;27.00;99.30;;;;;;5031757;28;20038;-72
2023/09/06 10:30:17;;;;;;;4.07;1.25;;;27.10;98.70;;;;;;5030889;28;20076;-72
2023/09/06 10:32:43;;;;;;;6.32;1.48;;;27.20;97.80;;;;;;5028638;28;20032;-72
2023/09/06 10:35:30;;;;;;;5.78;1.42;;;27.20;97.50;;;;;;5031314;28;20467;-72
2023/09/06 10:38:05;;;;;;;4.65;1.30;;;27.30;96.60;;;;;;5032281;28;20036;-73
2023/09/06 10:40:49;;;;;;;2.90;1.52;;;27.40;97.00;;;;;;5029817;28;20080;-73
2023/09/06 10:43:19;;;;;;;4.70;1.50;;;27.40;96.50;;;;;;5027293;28;20045;-72
2023/09/06 10:46:09;;;;;;;3.78;1.38;;;27.50;96.20;;;;;;5029420;28;20151;-72
2023/09/06 10:48:35;;;;;;;3.22;1.48;;;27.60;95.70;;;;;;5031773;28;20037;-72
2023/09/06 10:51:06;;;;;;;4.55;1.40;;;27.70;95.80;;;;;;5030886;28;20021;-72
2023/09/06 10:53:33;;;;;;;4.53;1.70;;;27.70;95.20;;;;;;5009688;28;20105;-72
2023/09/06 10:56:00;;;;;;;2.65;1.35;;;27.80;95.30;;;;;;5015533;28;20030;-73
2023/09/06 10:58:28;;;;;;;5.60;1.50;;;27.90;95.00;;;;;;5031845;28;20037;-73
2023/09/06 11:01:17;;;;;;;2.72;0.90;;;28.00;95.10;;;;;;5027826;28;20026;-73
2023/09/06 11:03:53;;;;;;;5.10;1.08;;;28.00;94.30;;;;;;5024601;28;20041;-73
2023/09/06 11:06:19;;;;;;;5.45;1.05;;;28.10;94.40;;;;;;5025636;28;20021;-73
2023/09/06 11:08:46;;;;;;;5.85;1.13;;;28.10;92.80;;;;;;5038343;28;20032;-73
2023/09/06 11:11:14;;;;;;;4.05;1.15;;;28.10;92.50;;;;;;5035535;28;20018;-74
2023/09/06 11:13:41;;;;;;;3.58;0.70;;;28.20;92.10;;;;;;5027679;28;20037;-75
2023/09/06 11:16:12;;;;;;;2.63;1.10;;;28.20;91.30;;;;;;5029105;28;20108;-74
2023/09/06 11:18:48;;;;;;;3.45;1.02;;;28.30;91.30;;;;;;5033962;28;20021;-74
2023/09/06 11:21:18;;;;;;;4.38;1.10;;;28.40;90.70;;;;;;5019807;28;20502;-73
2023/09/06 11:23:49;;;;;;;5.15;1.10;;;28.30;90.20;;;;;;5037470;28;20045;-75
2023/09/06 11:26:15;;;;;;;2.38;0.90;;;28.40;90.10;;;;;;5026915;28;20029;-73
2023/09/06 11:28:43;;;;;;;2.75;0.95;;;28.50;90.30;;;;;;5033862;28;20132;-73
2023/09/06 11:31:29;;;;;;;3.80;1.30;;;28.50;90.30;;;;;;5032614;28;20009;-73
2023/09/06 11:34:01;;;;;;;2.78;1.00;;;28.70;89.60;;;;;;5012032;28;20028;-73
2023/09/06 11:36:36;;;;;;;4.95;1.05;;;28.80;90.10;;;;;;5031422;28;20501;-73
2023/09/06 11:39:22;;;;;;;4.90;1.20;;;28.90;89.80;;;;;;5029116;28;20026;-73
2023/09/06 11:41:48;;;;;;;3.35;1.30;;;29.00;88.00;;;;;;5025659;28;20033;-73
2023/09/06 11:44:17;;;;;;;2.30;1.10;;;29.10;88.20;;;;;;5027684;28;20026;-74
2023/09/06 11:46:43;;;;;;;2.10;1.10;;;29.20;85.90;;;;;;5032004;28;20018;-73
2023/09/06 11:49:11;;;;;;;2.90;1.10;;;29.20;85.00;;;;;;5029574;28;20128;-74
2023/09/06 11:51:37;;;;;;;4.05;1.10;;;29.30;83.20;;;;;;5030871;28;20033;-74
2023/09/06 11:54:09;;;;;;;2.53;1.23;;;29.40;83.10;;;;;;5032054;28;20025;-74
2023/09/06 11:56:36;;;;;;;3.08;1.00;;;29.40;82.60;;;;;;5032066;28;20365;-73
2023/09/06 11:59:06;;;;;;;2.22;0.95;;;29.50;82.10;;;;;;5029692;28;20038;-74
2023/09/06 12:01:39;;;;;;;2.35;1.00;;;29.50;81.70;;;;;;5031543;28;20021;-74
2023/09/06 12:04:16;;;;;;;3.08;1.17;;;29.60;81.90;;;;;;5087672;27;20401;-73
2023/09/06 12:06:42;;;;;;;3.10;1.25;;;29.60;80.10;;;;;;5076764;28;20033;-73
2023/09/06 12:09:15;;;;;;;4.03;0.88;;;29.60;79.70;;;;;;5067234;28;20027;-73
2023/09/06 12:11:40;;;;;;;4.00;1.40;;;29.70;80.10;;;;;;5067759;28;20617;-73
2023/09/06 12:14:10;;;;;;;1.95;0.90;;;29.70;78.20;;;;;;5067559;28;20124;-73
2023/09/06 12:16:36;;;;;;;2.22;1.10;;;29.70;77.70;;;;;;5069491;28;20092;-73
2023/09/06 12:19:03;;;;;;;2.95;1.17;;;29.80;76.80;;;;;;5067093;28;20017;-73
2023/09/06 12:21:28;;;;;;;2.85;1.00;;;29.80;76.80;;;;;;5065878;28;20063;-73
2023/09/06 12:23:54;;;;;;;2.60;0.95;;;29.90;74.90;;;;;;5065427;28;20493;-73
2023/09/06 12:26:20;;;;;;;1.75;0.80;;;29.90;75.50;;;;;;5060510;28;20110;-73
2023/09/06 12:28:47;;;;;;;4.22;1.17;;;29.90;76.30;;;;;;5059831;28;20059;-73
2023/09/06 12:31:14;;;;;;;6.95;1.30;;;30.00;76.90;;;;;;5059185;28;20036;-73
2023/09/06 12:33:40;;;;;;;4.43;1.20;;;30.10;75.30;;;;;;5063211;28;20021;-73
2023/09/06 12:36:08;;;;;;;4.47;1.15;;;30.10;74.60;;;;;;5059757;28;20029;-73
2023/09/06 12:38:33;;;;;;;4.07;1.30;;;30.20;74.00;;;;;;5062368;28;20029;-73
2023/09/06 12:41:00;;;;;;;5.25;1.10;;;30.20;73.80;;;;;;5063495;28;20404;-73
2023/09/06 12:43:26;;;;;;;5.43;1.35;;;30.40;75.00;;;;;;5057522;28;20137;-73
2023/09/06 12:45:57;;;;;;;3.95;1.38;;;30.50;74.10;;;;;;5065748;28;20057;-73
2023/09/06 12:48:23;;;;;;;4.80;1.63;;;30.50;73.40;;;;;;5062069;28;20067;-73